This is the latest recevied weather packets stored in our database for station/object KO6SRA-13. If no packets are shown the sender has not sent any weather packets the latest 10 day(s).
| Time | Temp. | Humidity | Pressure | Rain* | Wind** | Luminosity | Snow |
|---|---|---|---|---|---|---|---|
| 1787507373 | 19.44° C | 78% | 1017.7 hPa | 0 mm | - | 702 W/m² | - |
| 1787507069 | 19.44° C | 78% | 1017.6 hPa | 0 mm | - | 754 W/m² | - |
| 1787506765 | 19.44° C | 76% | 1017.5 hPa | 0 mm | - | 725 W/m² | - |
| 1787506462 | 20° C | 75% | 1017.5 hPa | 0 mm | - | 710 W/m² | - |
| 1787506161 | 20° C | 75% | 1017.4 hPa | 0 mm | - | 694 W/m² | - |
| 1787505857 | 19.44° C | 77% | 1017.2 hPa | 0 mm | - | 673 W/m² | - |
| 1787505552 | 20° C | 77% | 1017.2 hPa | 0 mm | - | 503 W/m² | - |
| 1787505247 | 20° C | 76% | 1017.2 hPa | 0 mm | - | 559 W/m² | - |
| 1787504946 | 20.56° C | 75% | 1017.3 hPa | 0 mm | - | 563 W/m² | - |
| 1787504642 | 20.56° C | 73% | 1017.5 hPa | 0 mm | - | 539 W/m² | - |
| 1787504338 | 20° C | 75% | 1017.4 hPa | 0 mm | - | 494 W/m² | - |
| 1787504034 | 20° C | 75% | 1017.3 hPa | 0 mm | - | 460 W/m² | - |
| 1787503733 | 20° C | 76% | 1017.3 hPa | 0 mm | - | 474 W/m² | - |
| 1787503430 | 20° C | 76% | 1017.4 hPa | 0 mm | - | 445 W/m² | - |
| 1787503125 | 19.44° C | 77% | 1017.4 hPa | 0 mm | - | 457 W/m² | - |
| 1787502821 | 19.44° C | 77% | 1017.4 hPa | 0 mm | - | 428 W/m² | - |
| 1787502521 | 19.44° C | 77% | 1017.4 hPa | 0 mm | - | 412 W/m² | - |
| 1787502220 | 19.44° C | 79% | 1017.2 hPa | 0 mm | - | 398 W/m² | - |
| 1787501916 | 18.33° C | 81% | 1017.4 hPa | 0 mm | - | 377 W/m² | - |
| 1787501613 | 17.78° C | 83% | 1017.3 hPa | 0 mm | - | 345 W/m² | - |
| 1787501308 | 18.33° C | 81% | 1017.4 hPa | 0 mm | - | 314 W/m² | - |
| 1787501005 | 18.33° C | 83% | 1017.4 hPa | 0 mm | - | 311 W/m² | - |
| 1787500700 | 18.33° C | 82% | 1017.4 hPa | 0 mm | - | 294 W/m² | - |
| 1787500396 | 17.78° C | 85% | 1017.2 hPa | 0 mm | - | 287 W/m² | - |
| 1787500095 | 17.78° C | 86% | 1017 hPa | 0 mm | - | 260 W/m² | - |
* Rain latest hour (hover to see other rain measurements)
** Current wind speed in m/s (hover to see current wind gust speed)